Time;durP1;ratioP1;P1;durP2;ratioP2;P2;SDS_P1;SDS_P2;PMS_P1;PMS_P2;Temp;Humidity;BMP_temperature;BMP_pressure;BME280_temperature;BME280_humidity;BME280_pressure;Samples;Min_cycle;Max_cycle;Signal;HPM_P1;HPM_P2
2022/07/29 00:00:21;;;;;;;5.82;1.40;;;;;;;17.23;64.98;101486.84;5252073;28;20040;-66
2022/07/29 00:02:52;;;;;;;4.65;1.30;;;;;;;17.24;64.11;101491.25;5260196;28;20060;-66
2022/07/29 00:05:23;;;;;;;6.50;1.60;;;;;;;17.21;64.22;101494.22;5264142;28;20024;-66
2022/07/29 00:07:55;;;;;;;4.90;1.40;;;;;;;17.26;65.23;101486.56;5256838;28;20032;-66
2022/07/29 00:10:27;;;;;;;3.83;1.25;;;;;;;17.22;65.25;101496.78;5266818;28;20346;-66
2022/07/29 00:12:59;;;;;;;4.47;1.45;;;;;;;17.21;64.67;101488.81;5260709;28;20029;-66
2022/07/29 00:15:30;;;;;;;3.75;1.50;;;;;;;17.18;64.51;101484.59;5257247;28;20479;-66
2022/07/29 00:18:01;;;;;;;4.50;1.30;;;;;;;17.16;64.96;101485.69;5269979;28;20410;-66
2022/07/29 00:20:32;;;;;;;3.47;1.30;;;;;;;17.18;64.70;101483.72;5269001;28;20503;-66
2022/07/29 00:23:04;;;;;;;4.30;1.40;;;;;;;17.21;66.42;101488.81;5265019;28;20420;-66
2022/07/29 00:25:35;;;;;;;6.47;1.42;;;;;;;17.13;64.87;101476.06;5270460;28;20021;-66
2022/07/29 00:28:06;;;;;;;5.78;1.52;;;;;;;17.14;66.26;101485.84;5266757;28;20093;-66
2022/07/29 00:30:38;;;;;;;4.32;1.30;;;;;;;17.10;65.78;101481.72;5259585;28;20098;-66
2022/07/29 00:33:09;;;;;;;4.97;1.52;;;;;;;17.08;66.15;101493.66;5256002;28;20043;-66
2022/07/29 00:35:43;;;;;;;3.03;1.52;;;;;;;17.12;69.11;101498.63;5257965;28;20611;-66
2022/07/29 00:38:18;;;;;;;;;;;;;;;17.21;66.01;101505.00;5263177;28;20036;-66
2022/07/29 00:40:49;;;;;;;5.45;1.60;;;;;;;17.06;67.85;101496.50;5253543;28;19928;-66
2022/07/29 00:43:21;;;;;;;4.22;1.50;;;;;;;17.07;67.79;101505.44;5260389;28;20024;-66
2022/07/29 00:45:52;;;;;;;4.88;1.33;;;;;;;17.10;70.37;101514.09;5254198;28;20070;-66
2022/07/29 00:48:23;;;;;;;4.13;1.50;;;;;;;17.09;68.13;101522.34;5257687;28;20029;-66
2022/07/29 00:50:58;;;;;;;3.25;1.27;;;;;;;17.17;68.43;101525.16;5261754;28;20074;-66
2022/07/29 00:53:30;;;;;;;4.75;1.52;;;;;;;17.22;69.04;101528.25;5263333;28;20027;-66
2022/07/29 00:56:01;;;;;;;5.95;1.55;;;;;;;17.05;68.40;101525.31;5260140;28;20133;-66
2022/07/29 00:58:33;;;;;;;3.55;1.38;;;;;;;17.11;71.48;101512.28;5255283;28;20072;-66
2022/07/29 01:01:04;;;;;;;5.72;1.63;;;;;;;17.03;68.81;101497.66;5253056;28;20073;-66
2022/07/29 01:03:35;;;;;;;7.90;1.60;;;;;;;17.05;75.66;101492.97;5255866;28;20033;-66
2022/07/29 01:06:06;;;;;;;3.40;1.50;;;;;;;16.85;76.44;101489.41;5257834;28;20052;-67
2022/07/29 01:08:38;;;;;;;3.75;1.45;;;;;;;16.70;79.70;101468.41;5260622;28;20042;-66
2022/07/29 01:11:10;;;;;;;5.30;1.70;;;;;;;16.66;81.78;101462.44;5267713;28;20025;-66
2022/07/29 01:13:43;;;;;;;4.28;1.80;;;;;;;16.48;79.08;101454.22;5247551;28;20447;-66
2022/07/29 01:16:24;;;;;;;4.85;1.67;;;;;;;16.51;83.67;101456.66;5252420;28;20391;-66
2022/07/29 01:19:04;;;;;;;4.03;1.88;;;;;;;16.51;85.47;101439.63;5264100;28;20065;-66
2022/07/29 01:21:55;;;;;;;4.03;1.63;;;;;;;16.34;80.12;101447.44;5259451;28;20040;-66
2022/07/29 01:25:02;;;;;;;6.07;1.90;;;;;;;16.26;81.63;101428.41;5257117;28;20478;-70
2022/07/29 01:27:50;;;;;;;4.47;1.73;;;;;;;16.21;78.30;101412.69;5253804;28;20024;-66
2022/07/29 01:30:25;;;;;;;4.95;1.83;;;;;;;16.20;80.07;101408.31;5256943;28;20371;-66
2022/07/29 01:33:05;;;;;;;6.20;2.10;;;;;;;16.20;79.20;101394.84;5258467;28;20540;-66
2022/07/29 01:35:41;;;;;;;6.43;2.30;;;;;;;16.20;77.82;101400.22;5254586;28;20093;-66
2022/07/29 01:38:20;;;;;;;4.15;2.58;;;;;;;16.21;76.70;101395.69;5260398;28;20516;-66
2022/07/29 01:40:53;;;;;;;4.35;1.98;;;;;;;16.25;78.29;101399.78;5266002;28;20051;-66
2022/07/29 01:43:38;;;;;;;4.57;2.30;;;;;;;16.22;78.34;101403.63;5262622;28;20059;-66
2022/07/29 01:46:14;;;;;;;4.40;2.10;;;;;;;16.16;78.19;101398.78;5258919;28;20086;-66
2022/07/29 01:48:51;;;;;;;4.80;2.10;;;;;;;16.18;78.00;101385.19;5264605;28;20060;-66
2022/07/29 01:51:32;;;;;;;4.05;1.92;;;;;;;16.14;77.62;101399.91;5264238;28;20056;-66
2022/07/29 01:54:20;;;;;;;6.28;1.77;;;;;;;16.19;77.45;101411.13;5263981;28;20032;-66
2022/07/29 01:56:53;;;;;;;4.18;1.83;;;;;;;16.18;80.43;101412.94;5259486;28;20036;-66
2022/07/29 01:59:25;;;;;;;4.38;1.90;;;;;;;16.18;77.73;101412.94;5268956;28;20028;-66
2022/07/29 02:01:58;;;;;;;5.72;1.80;;;;;;;16.22;78.94;101417.09;5258137;28;20361;-66
2022/07/29 02:04:32;;;;;;;4.18;1.80;;;;;;;16.13;78.36;101412.53;5273441;28;20089;-66
2022/07/29 02:07:06;;;;;;;5.95;1.98;;;;;;;16.23;81.24;101408.00;5259452;28;20107;-66
2022/07/29 02:09:40;;;;;;;5.95;2.30;;;;;;;16.20;80.70;101402.91;5266860;28;20578;-66
2022/07/29 02:12:14;;;;;;;6.35;1.90;;;;;;;16.25;81.23;101392.56;5266479;28;20398;-66
2022/07/29 02:14:48;;;;;;;4.60;2.05;;;;;;;16.20;79.57;101394.84;5256530;28;20017;-66
2022/07/29 02:17:31;;;;;;;5.95;1.90;;;;;;;16.30;80.34;101397.53;5258841;28;20082;-66
2022/07/29 02:20:04;;;;;;;4.90;2.03;;;;;;;16.21;81.23;101396.53;5261158;28;20571;-66
2022/07/29 02:22:38;;;;;;;4.00;2.15;;;;;;;16.26;81.42;101388.00;5259577;28;20470;-66
2022/07/29 02:25:11;;;;;;;6.25;1.95;;;;;;;16.19;80.49;101393.13;5258251;28;20029;-66
2022/07/29 02:27:43;;;;;;;4.45;1.92;;;;;;;16.13;80.47;101388.31;5259999;28;20035;-66
2022/07/29 02:30:14;;;;;;;5.38;2.45;;;;;;;16.15;81.61;101383.63;5258140;28;20032;-66
2022/07/29 02:32:48;;;;;;;4.68;2.28;;;;;;;16.08;79.38;101391.41;5266324;28;20036;-66
2022/07/29 02:35:21;;;;;;;4.47;2.00;;;;;;;16.14;78.86;101390.00;5270063;28;20507;-67
2022/07/29 02:40:43;;;;;;;5.65;2.30;;;;;;;16.02;81.66;101391.13;5257162;28;20024;-66
2022/07/29 02:43:17;;;;;;;5.63;2.05;;;;;;;16.11;82.87;101389.41;5260114;28;20399;-66
2022/07/29 02:45:52;;;;;;;6.40;2.33;;;;;;;16.05;81.75;101380.94;5253977;28;21836;-67
2022/07/29 02:48:43;;;;;;;5.10;2.30;;;;;;;15.99;80.88;101381.50;5250887;28;20031;-67
2022/07/29 02:51:23;;;;;;;5.55;2.33;;;;;;;16.01;81.15;101382.22;5259911;28;20040;-66
2022/07/29 02:53:56;;;;;;;6.28;2.30;;;;;;;16.02;83.28;101381.19;5266618;28;20142;-66
2022/07/29 02:56:34;;;;;;;5.90;2.53;;;;;;;16.00;81.97;101393.09;5256608;28;20024;-66
2022/07/29 02:59:11;;;;;;;5.30;2.38;;;;;;;16.13;85.32;101393.69;5256823;28;20078;-66
2022/07/29 03:01:44;;;;;;;4.15;2.20;;;;;;;16.04;81.52;101397.22;5258473;28;20067;-66
2022/07/29 03:04:18;;;;;;;4.32;2.42;;;;;;;16.03;83.20;101396.38;5254645;28;21216;-66
2022/07/29 03:06:50;;;;;;;;;;;;;;;16.14;79.99;101389.16;5251744;28;20032;-66
2022/07/29 03:09:22;;;;;;;5.88;2.50;;;;;;;16.11;81.52;101401.06;5254088;28;20453;-67
2022/07/29 03:11:55;;;;;;;5.05;2.20;;;;;;;16.00;81.92;101406.56;5253755;28;20578;-66
2022/07/29 03:14:27;;;;;;;5.75;2.40;;;;;;;15.92;80.86;101399.19;5266272;28;20035;-66
2022/07/29 03:16:59;;;;;;;5.32;3.03;;;;;;;15.88;80.98;101404.00;5251898;28;20178;-66
2022/07/29 03:19:31;;;;;;;5.60;2.25;;;;;;;15.82;81.19;101403.69;5254012;28;20033;-66
2022/07/29 03:22:03;;;;;;;5.65;2.35;;;;;;;15.79;81.40;101399.44;5255316;28;20085;-66
2022/07/29 03:24:36;;;;;;;5.25;2.08;;;;;;;15.74;81.97;101398.13;5252455;28;20025;-66
2022/07/29 03:27:07;;;;;;;5.75;2.40;;;;;;;15.73;82.12;101397.31;5258251;28;20025;-66
2022/07/29 03:29:39;;;;;;;4.60;2.30;;;;;;;15.73;81.86;101389.22;5252646;28;20490;-66
2022/07/29 03:32:10;;;;;;;6.82;2.78;;;;;;;15.70;82.26;101397.53;5251047;28;20036;-66
2022/07/29 03:34:41;;;;;;;7.10;2.42;;;;;;;15.69;82.42;101393.16;5252799;28;20024;-66
2022/07/29 03:37:12;;;;;;;7.13;2.50;;;;;;;15.66;82.08;101391.56;5257835;28;20016;-66
2022/07/29 03:39:45;;;;;;;4.95;2.50;;;;;;;15.66;82.21;101393.41;5256407;28;20082;-66
2022/07/29 03:42:20;;;;;;;3.53;2.50;;;;;;;15.60;81.39;101393.97;5263813;28;20058;-66
2022/07/29 03:44:53;;;;;;;4.13;2.30;;;;;;;15.61;81.87;101392.97;5251167;28;20029;-66
2022/07/29 03:47:26;;;;;;;5.72;2.40;;;;;;;15.61;83.61;101396.53;5255858;28;20060;-66
2022/07/29 03:50:05;;;;;;;5.57;2.58;;;;;;;15.59;81.61;101398.50;5252006;28;20036;-66
2022/07/29 03:52:36;;;;;;;4.28;2.35;;;;;;;15.59;84.16;101390.44;5245085;28;20618;-66
2022/07/29 03:55:08;;;;;;;4.90;2.10;;;;;;;15.52;82.71;101385.75;5248115;28;20035;-66
2022/07/29 03:57:41;;;;;;;4.50;2.38;;;;;;;15.50;82.78;101388.56;5248754;28;20056;-66
2022/07/29 04:00:15;;;;;;;6.47;2.40;;;;;;;15.43;83.46;101382.88;5252709;28;20029;-66
2022/07/29 04:02:48;;;;;;;5.57;2.65;;;;;;;15.43;83.41;101393.63;5252121;28;20060;-66
2022/07/29 04:05:19;;;;;;;6.25;2.70;;;;;;;15.41;84.16;101390.22;5252193;28;20418;-66
2022/07/29 04:07:51;;;;;;;4.97;2.58;;;;;;;15.40;83.31;101385.84;5249740;28;20115;-67
2022/07/29 04:10:25;;;;;;;5.05;2.28;;;;;;;15.37;83.46;101383.41;5257921;28;20090;-66
2022/07/29 04:12:56;;;;;;;6.07;2.50;;;;;;;15.40;84.33;101377.78;5255084;28;20032;-66
2022/07/29 04:15:28;;;;;;;8.02;2.47;;;;;;;15.45;85.59;101380.03;5260517;28;20064;-66
2022/07/29 04:17:59;;;;;;;5.65;1.98;;;;;;;15.37;84.75;101369.97;5257129;28;20091;-66
2022/07/29 04:20:31;;;;;;;5.93;2.50;;;;;;;15.37;84.72;101379.88;5259711;28;20032;-66
2022/07/29 04:23:02;;;;;;;5.90;2.47;;;;;;;15.35;85.48;101376.47;5261321;28;20024;-66
2022/07/29 04:25:37;;;;;;;4.85;2.50;;;;;;;15.39;86.10;101370.69;5259307;28;20047;-66
2022/07/29 04:28:09;;;;;;;5.32;2.47;;;;;;;15.39;85.07;101369.84;5261212;28;20029;-66
2022/07/29 04:30:40;;;;;;;6.85;2.50;;;;;;;15.43;84.79;101373.94;5252572;28;20049;-66
2022/07/29 04:33:12;;;;;;;4.53;2.38;;;;;;;15.33;85.27;101376.59;5255144;28;20493;-66
2022/07/29 04:35:43;;;;;;;5.82;2.65;;;;;;;15.32;85.62;101382.13;5252570;28;20050;-66
2022/07/29 04:38:14;;;;;;;7.78;2.53;;;;;;;15.34;86.03;101382.81;5247930;28;20494;-66
2022/07/29 04:40:45;;;;;;;7.68;2.55;;;;;;;15.23;85.89;101381.94;5249717;28;20040;-66
2022/07/29 04:43:17;;;;;;;4.88;2.60;;;;;;;15.20;86.08;101387.56;5254333;28;20082;-66
2022/07/29 04:45:48;;;;;;;6.07;3.20;;;;;;;15.25;86.60;101401.47;5247501;28;20321;-66
2022/07/29 04:48:19;;;;;;;8.60;2.88;;;;;;;15.22;87.51;101414.34;5255891;28;20092;-66
2022/07/29 04:50:51;;;;;;;4.93;2.70;;;;;;;15.26;89.04;101418.44;5260152;28;20059;-66
2022/07/29 04:53:22;;;;;;;5.60;2.88;;;;;;;15.17;88.07;101403.13;5262089;28;20151;-66
2022/07/29 04:55:53;;;;;;;4.75;2.95;;;;;;;15.22;87.87;101417.03;5258853;28;20032;-69
2022/07/29 04:58:25;;;;;;;4.95;2.85;;;;;;;15.15;88.18;101421.22;5266485;28;20470;-67
2022/07/29 05:00:56;;;;;;;5.88;3.38;;;;;;;15.15;89.01;101427.47;5255231;28;20419;-66
2022/07/29 05:03:27;;;;;;;6.22;3.03;;;;;;;15.10;89.26;101435.06;5266316;28;20075;-66
2022/07/29 05:05:59;;;;;;;6.80;3.03;;;;;;;15.07;90.13;101440.69;5263461;28;21482;-66
2022/07/29 05:08:30;;;;;;;7.60;3.05;;;;;;;15.12;90.48;101432.25;5263028;28;20036;-66
2022/07/29 05:11:01;;;;;;;8.25;3.20;;;;;;;15.18;90.93;101448.69;5255746;28;20032;-66
2022/07/29 05:13:33;;;;;;;7.53;3.50;;;;;;;15.22;90.60;101442.06;5260836;28;20071;-66
2022/07/29 05:16:04;;;;;;;4.93;3.22;;;;;;;15.29;90.28;101437.84;5264461;28;20103;-66
2022/07/29 05:18:36;;;;;;;8.80;3.22;;;;;;;15.34;90.49;101440.16;5266412;28;20058;-66
2022/07/29 05:21:07;;;;;;;7.18;3.42;;;;;;;15.34;90.13;101442.84;5264625;28;20020;-66
2022/07/29 05:23:38;;;;;;;8.18;3.60;;;;;;;15.35;89.43;101444.53;5265193;28;20040;-66
2022/07/29 05:26:10;;;;;;;8.43;4.22;;;;;;;15.37;89.37;101444.41;5264671;28;20028;-66
2022/07/29 05:28:41;;;;;;;6.53;3.80;;;;;;;15.33;88.72;101449.19;5267097;28;20107;-66
2022/07/29 05:31:14;;;;;;;4.93;3.38;;;;;;;15.37;88.98;101447.09;5262801;28;20478;-66
2022/07/29 05:33:45;;;;;;;7.65;3.88;;;;;;;15.37;89.11;101444.41;5271763;28;20020;-66
2022/07/29 05:36:16;;;;;;;6.03;3.35;;;;;;;15.41;89.20;101444.00;5271313;28;20032;-66
2022/07/29 05:38:48;;;;;;;6.93;3.70;;;;;;;15.44;89.24;101441.06;5262539;28;20028;-66
2022/07/29 05:41:20;;;;;;;6.45;3.80;;;;;;;15.39;89.11;101435.22;5260165;28;20037;-66
2022/07/29 05:43:51;;;;;;;6.90;4.13;;;;;;;15.32;89.20;101438.56;5262952;28;20024;-66
2022/07/29 05:46:22;;;;;;;6.95;3.70;;;;;;;15.34;89.31;101441.97;5261004;28;20063;-66
2022/07/29 05:48:54;;;;;;;9.57;4.00;;;;;;;15.33;89.48;101435.75;5272119;28;20041;-66
2022/07/29 05:51:26;;;;;;;6.65;4.18;;;;;;;15.48;91.29;101439.78;5266024;28;20475;-66
2022/07/29 05:53:57;;;;;;;7.38;4.18;;;;;;;15.46;89.58;101441.75;5269434;28;20458;-66
2022/07/29 05:56:28;;;;;;;9.13;4.70;;;;;;;15.48;88.93;101438.94;5266334;28;20075;-66
2022/07/29 05:58:59;;;;;;;6.80;4.00;;;;;;;15.55;89.13;101436.56;5268263;28;20056;-66
2022/07/29 06:01:31;;;;;;;10.73;4.93;;;;;;;15.66;88.83;101436.47;5262605;28;20502;-65
2022/07/29 06:04:02;;;;;;;7.15;4.50;;;;;;;15.83;89.88;101441.22;5270950;28;20098;-66
2022/07/29 06:06:34;;;;;;;7.55;4.60;;;;;;;15.87;88.23;101436.41;5265707;28;20025;-66
2022/07/29 06:09:05;;;;;;;7.95;4.20;;;;;;;15.98;86.96;101444.38;5263080;28;20086;-66
2022/07/29 06:11:37;;;;;;;7.10;4.32;;;;;;;16.07;86.71;101446.25;5267334;28;20028;-66
2022/07/29 06:14:08;;;;;;;10.30;4.88;;;;;;;15.97;86.02;101437.28;5270115;28;20387;-66
2022/07/29 06:16:39;;;;;;;7.22;4.70;;;;;;;16.14;86.85;101441.16;5271057;28;20457;-66
2022/07/29 06:19:11;;;;;;;6.53;4.05;;;;;;;16.24;85.90;101447.41;5263906;28;20028;-65
2022/07/29 06:21:43;;;;;;;8.43;4.72;;;;;;;16.31;85.27;101442.31;5263638;28;20105;-66
2022/07/29 06:24:15;;;;;;;6.35;4.30;;;;;;;16.44;84.44;101450.97;5263157;28;20479;-66
2022/07/29 06:26:46;;;;;;;9.38;4.43;;;;;;;16.36;84.77;101445.44;5272904;28;20035;-66
2022/07/29 06:29:18;;;;;;;7.05;4.40;;;;;;;16.43;84.85;101441.19;5271353;28;20033;-66
2022/07/29 06:31:50;;;;;;;7.60;4.65;;;;;;;16.43;84.28;101434.94;5260882;28;20450;-66
2022/07/29 06:34:21;;;;;;;8.00;4.43;;;;;;;16.45;84.04;101439.22;5258208;28;20515;-66
2022/07/29 06:36:52;;;;;;;9.05;4.50;;;;;;;16.58;83.90;101447.00;5258891;28;20124;-66
2022/07/29 06:39:23;;;;;;;10.18;4.20;;;;;;;16.49;83.39;101447.84;5254632;28;20028;-66
2022/07/29 06:41:55;;;;;;;7.35;4.50;;;;;;;16.50;83.73;101451.41;5258277;28;20032;-66
2022/07/29 06:44:26;;;;;;;8.15;4.55;;;;;;;16.52;84.64;101450.25;5265352;28;20440;-66
2022/07/29 06:46:57;;;;;;;8.85;4.35;;;;;;;16.57;85.45;101453.38;5260005;28;20052;-66
2022/07/29 06:49:29;;;;;;;5.93;4.70;;;;;;;16.50;83.53;101444.16;5262399;28;20036;-66
2022/07/29 06:52:00;;;;;;;7.63;4.50;;;;;;;16.58;85.36;101454.22;5260507;28;20497;-66
2022/07/29 06:54:31;;;;;;;8.27;4.72;;;;;;;16.46;83.49;101458.91;5254361;28;20017;-66
2022/07/29 06:57:02;;;;;;;6.60;4.63;;;;;;;16.41;83.48;101463.84;5254621;28;20033;-66
2022/07/29 06:59:34;;;;;;;7.88;4.60;;;;;;;16.45;83.94;101462.59;5259113;28;20048;-66
2022/07/29 07:02:05;;;;;;;8.18;4.50;;;;;;;16.42;83.96;101463.72;5259609;28;20032;-66
2022/07/29 07:04:36;;;;;;;9.10;4.40;;;;;;;16.42;84.05;101466.41;5259050;28;20033;-66
2022/07/29 07:07:08;;;;;;;6.35;4.15;;;;;;;16.45;84.15;101466.16;5266568;28;20486;-66
2022/07/29 07:09:39;;;;;;;10.35;4.72;;;;;;;16.54;84.39;101468.97;5271030;28;20029;-66
2022/07/29 07:12:11;;;;;;;8.55;4.43;;;;;;;16.86;84.38;101474.13;5265045;28;20024;-66
2022/07/29 07:14:42;;;;;;;6.95;4.30;;;;;;;16.93;86.38;101472.56;5271384;28;20020;-66
2022/07/29 07:17:13;;;;;;;8.57;4.57;;;;;;;17.02;84.53;101470.84;5261038;28;20029;-66
2022/07/29 07:19:45;;;;;;;9.15;4.30;;;;;;;16.90;82.28;101478.22;5262042;28;20036;-66
2022/07/29 07:22:16;;;;;;;7.47;4.55;;;;;;;17.03;82.53;101473.38;5254924;28;20029;-66
2022/07/29 07:24:47;;;;;;;7.13;4.15;;;;;;;17.22;82.64;101480.59;5262098;28;20025;-66
2022/07/29 07:27:19;;;;;;;7.25;4.55;;;;;;;17.06;82.10;101477.63;5260379;28;20174;-66
2022/07/29 07:29:50;;;;;;;7.75;4.72;;;;;;;17.15;81.97;101481.31;5257375;28;20573;-66
2022/07/29 07:32:21;;;;;;;7.47;4.60;;;;;;;17.18;82.46;101481.88;5267629;28;20379;-66
2022/07/29 07:34:52;;;;;;;7.70;4.97;;;;;;;17.19;82.24;101480.03;5266769;28;20032;-66
2022/07/29 07:37:24;;;;;;;7.03;4.13;;;;;;;17.22;81.92;101475.19;5260490;28;20032;-66
2022/07/29 07:39:56;;;;;;;6.63;4.05;;;;;;;17.29;81.25;101480.84;5275490;28;20052;-66
2022/07/29 07:42:27;;;;;;;7.10;4.60;;;;;;;17.41;81.27;101481.53;5271208;28;20100;-66
2022/07/29 07:44:59;;;;;;;10.10;5.28;;;;;;;17.29;81.02;101486.25;5260451;28;20143;-66
2022/07/29 07:47:30;;;;;;;7.55;4.32;;;;;;;17.46;81.20;101481.94;5265820;28;20020;-68
2022/07/29 07:50:03;;;;;;;8.75;5.10;;;;;;;17.69;80.65;101485.13;5255403;28;20399;-66
2022/07/29 07:52:45;;;;;;;8.23;4.35;;;;;;;17.83;79.51;101479.25;5269894;28;20047;-66
2022/07/29 07:55:16;;;;;;;9.75;5.10;;;;;;;17.96;80.27;101487.00;5271961;28;20141;-67
2022/07/29 07:57:48;;;;;;;9.35;5.28;;;;;;;18.11;79.44;101487.38;5263808;28;20049;-66
2022/07/29 08:00:20;;;;;;;11.10;5.35;;;;;;;18.12;78.56;101488.22;5260739;28;20127;-66
2022/07/29 08:02:51;;;;;;;7.53;5.20;;;;;;;18.14;77.51;101484.38;5261096;28;20035;-67
2022/07/29 08:05:22;;;;;;;8.25;4.93;;;;;;;18.27;77.36;101485.84;5270092;28;20330;-66
2022/07/29 08:07:54;;;;;;;8.23;5.00;;;;;;;18.41;77.20;101482.63;5266984;28;20020;-66
2022/07/29 08:13:15;;;;;;;7.03;4.57;;;;;;;18.54;76.23;101483.13;5265679;28;20115;-66
2022/07/29 08:15:47;;;;;;;8.30;4.95;;;;;;;18.47;77.36;101492.00;5257430;28;20029;-66
2022/07/29 08:18:18;;;;;;;6.63;4.97;;;;;;;18.68;77.98;101480.84;5268210;28;20504;-66
2022/07/29 08:20:50;;;;;;;7.93;4.75;;;;;;;18.91;77.91;101492.94;5267912;28;20514;-67
2022/07/29 08:23:22;;;;;;;8.10;5.15;;;;;;;18.90;76.68;101485.81;5261312;28;20032;-66
2022/07/29 08:25:54;;;;;;;10.07;5.57;;;;;;;18.87;76.65;101487.97;5265964;28;20113;-66
2022/07/29 08:28:25;;;;;;;8.05;4.30;;;;;;;18.97;75.49;101489.59;5272030;28;20495;-66
2022/07/29 08:30:56;;;;;;;6.65;4.63;;;;;;;19.08;75.63;101491.22;5268982;28;20115;-66
2022/07/29 08:33:27;;;;;;;6.45;5.13;;;;;;;18.97;75.47;101495.00;5264174;28;20540;-66
2022/07/29 08:35:59;;;;;;;6.18;4.63;;;;;;;19.03;75.98;101493.53;5258475;28;20497;-66
2022/07/29 08:38:30;;;;;;;6.68;4.93;;;;;;;19.27;75.63;101492.88;5262295;28;20024;-66
2022/07/29 08:41:01;;;;;;;8.18;4.82;;;;;;;19.04;75.50;101489.78;5277278;28;20035;-67
2022/07/29 08:43:37;;;;;;;9.02;4.43;;;;;;;19.50;73.84;101500.44;5266964;28;20100;-67
2022/07/29 08:46:08;;;;;;;9.43;5.13;;;;;;;19.43;74.19;101499.41;5269415;28;20077;-66
2022/07/29 08:48:41;;;;;;;8.73;5.18;;;;;;;19.42;73.97;101497.69;5269686;28;20108;-66
2022/07/29 08:51:20;;;;;;;8.98;4.90;;;;;;;19.57;73.87;101499.63;5258659;28;20060;-66
2022/07/29 08:53:51;;;;;;;10.45;5.40;;;;;;;19.50;73.09;101495.91;5254741;28;20603;-66
2022/07/29 08:56:23;;;;;;;7.13;4.70;;;;;;;19.68;72.85;101497.69;5265228;28;20199;-66
2022/07/29 08:58:56;;;;;;;9.27;4.60;;;;;;;19.84;70.91;101502.34;5262452;28;20048;-66
2022/07/29 09:01:30;;;;;;;9.75;4.50;;;;;;;19.93;72.38;101495.97;5254733;28;20024;-66
2022/07/29 09:04:03;;;;;;;7.60;4.72;;;;;;;19.99;69.32;101498.00;5263830;28;20032;-66
2022/07/29 09:06:39;;;;;;;7.43;4.28;;;;;;;19.95;68.93;101499.34;5260012;28;20102;-67
2022/07/29 09:09:10;;;;;;;8.55;4.55;;;;;;;19.98;69.50;101497.16;5263431;28;20036;-66
2022/07/29 09:11:42;;;;;;;6.13;4.38;;;;;;;20.07;70.09;101498.03;5259961;28;20094;-66
2022/07/29 09:14:14;;;;;;;7.78;3.90;;;;;;;20.10;67.54;101497.72;5267704;28;20025;-67
2022/07/29 09:16:53;;;;;;;8.15;3.83;;;;;;;20.14;66.95;101493.66;5273090;28;20457;-66
2022/07/29 09:19:30;;;;;;;7.30;3.53;;;;;;;20.27;68.82;101493.22;5261852;28;20021;-67
2022/07/29 09:22:05;;;;;;;6.00;3.65;;;;;;;20.41;68.62;101501.72;5259406;28;20032;-67
2022/07/29 09:24:44;;;;;;;7.63;4.00;;;;;;;20.61;68.27;101503.09;5268592;28;20110;-69
2022/07/29 09:27:28;;;;;;;6.28;3.70;;;;;;;20.75;69.03;101502.47;5265400;28;20040;-67
2022/07/29 09:30:05;;;;;;;6.70;3.10;;;;;;;20.92;65.08;101510.59;5256295;28;20039;-66
2022/07/29 09:32:58;;;;;;;5.43;2.85;;;;;;;20.88;64.76;101510.09;5256264;28;20049;-67
2022/07/29 09:35:30;;;;;;;6.40;3.42;;;;;;;20.94;65.41;101505.84;5270904;28;20032;-67
2022/07/29 09:38:14;;;;;;;5.45;3.35;;;;;;;20.99;65.53;101510.78;5262884;28;20104;-67
2022/07/29 09:40:59;;;;;;;7.20;3.40;;;;;;;21.05;65.01;101513.66;5266469;28;20024;-67
2022/07/29 09:43:31;;;;;;;8.07;3.80;;;;;;;21.09;66.02;101503.31;5272745;28;20025;-67
2022/07/29 09:46:12;;;;;;;5.45;3.22;;;;;;;21.28;66.23;101505.66;5264481;28;20459;-67
2022/07/29 09:48:44;;;;;;;7.15;2.75;;;;;;;21.39;63.19;101498.19;5266682;28;20028;-67
2022/07/29 09:51:19;;;;;;;8.00;3.17;;;;;;;21.41;63.06;101504.28;5264216;28;20559;-67
2022/07/29 09:53:51;;;;;;;6.18;2.70;;;;;;;21.46;59.61;101505.50;5263264;28;20040;-67
2022/07/29 09:56:39;;;;;;;7.05;3.10;;;;;;;21.43;59.55;101502.25;5271063;28;20036;-67
2022/07/29 09:59:11;;;;;;;6.35;2.67;;;;;;;21.61;60.04;101502.94;5265299;28;20491;-67
2022/07/29 10:01:43;;;;;;;7.40;3.35;;;;;;;21.80;59.86;101500.81;5266965;28;20492;-67
2022/07/29 10:04:15;;;;;;;7.32;3.22;;;;;;;21.59;59.94;101504.94;5257482;28;20099;-67
2022/07/29 10:06:59;;;;;;;8.07;3.38;;;;;;;21.92;60.84;101497.53;5255994;28;20102;-67
2022/07/29 10:09:33;;;;;;;4.63;2.72;;;;;;;22.05;57.24;101501.56;5271646;28;20373;-66
2022/07/29 10:12:10;;;;;;;7.10;2.60;;;;;;;21.96;57.18;101499.91;5258771;28;20044;-67
2022/07/29 10:14:42;;;;;;;6.93;3.00;;;;;;;22.04;57.05;101498.00;5259149;28;20029;-67
2022/07/29 10:17:15;;;;;;;5.95;2.63;;;;;;;21.97;56.24;101497.00;5276267;28;20029;-67
2022/07/29 10:19:47;;;;;;;4.55;3.17;;;;;;;22.09;56.50;101490.16;5274665;28;20025;-67
2022/07/29 10:22:18;;;;;;;6.43;2.67;;;;;;;22.29;58.01;101501.47;5275736;28;20123;-67
2022/07/29 10:24:50;;;;;;;6.68;2.85;;;;;;;22.05;54.89;101494.28;5262538;28;20033;-67
2022/07/29 10:27:21;;;;;;;6.93;2.60;;;;;;;22.23;55.81;101498.59;5263221;28;20399;-67
2022/07/29 10:29:53;;;;;;;7.53;2.80;;;;;;;22.36;56.50;101498.03;5268156;28;20024;-67
2022/07/29 10:32:39;;;;;;;6.18;2.50;;;;;;;22.57;54.93;101498.25;5264496;28;20504;-67
2022/07/29 10:35:49;;;;;;;6.15;2.80;;;;;;;22.70;56.33;101497.63;5265234;28;20036;-67
2022/07/29 10:38:50;;;;;;;5.07;2.47;;;;;;;22.85;56.02;101495.81;5271982;28;20039;-67
2022/07/29 10:41:34;;;;;;;7.47;2.80;;;;;;;22.79;53.86;101491.09;5268782;28;20491;-67
2022/07/29 10:44:12;;;;;;;6.82;2.58;;;;;;;23.06;54.30;101489.72;5271399;28;20074;-67
2022/07/29 10:46:44;;;;;;;6.40;2.72;;;;;;;23.02;53.47;101487.50;5259419;28;20040;-67
2022/07/29 10:49:16;;;;;;;6.35;2.60;;;;;;;22.96;54.99;101474.66;5268625;28;20406;-67
2022/07/29 10:51:55;;;;;;;5.85;2.70;;;;;;;23.22;53.31;101477.84;5266354;28;20056;-67
2022/07/29 10:54:36;;;;;;;8.77;2.60;;;;;;;23.23;53.11;101484.13;5266204;28;20659;-67
2022/07/29 10:57:17;;;;;;;7.28;2.58;;;;;;;23.19;53.43;101477.34;5269785;28;20028;-67
2022/07/29 10:59:57;;;;;;;5.63;2.67;;;;;;;23.06;52.83;101481.53;5265511;28;20044;-67
2022/07/29 11:02:31;;;;;;;6.50;2.80;;;;;;;23.33;52.03;101484.69;5270245;28;20032;-67
2022/07/29 11:05:18;;;;;;;6.90;2.33;;;;;;;23.43;54.54;101482.56;5260101;28;20040;-67
2022/07/29 11:08:23;;;;;;;5.60;2.80;;;;;;;23.42;53.36;101489.03;5259822;28;20722;-67
2022/07/29 11:11:16;;;;;;;5.60;2.60;;;;;;;23.47;52.82;101483.00;5262428;28;20101;-67
2022/07/29 11:13:50;;;;;;;6.78;3.10;;;;;;;23.35;52.09;101484.50;5268854;28;20370;-67
2022/07/29 11:16:22;;;;;;;7.38;3.33;;;;;;;23.45;52.16;101475.03;5262878;28;20028;-67
2022/07/29 11:19:11;;;;;;;5.93;3.10;;;;;;;23.56;52.11;101473.72;5266614;28;20029;-67
2022/07/29 11:21:52;;;;;;;5.32;2.75;;;;;;;23.42;52.93;101474.56;5259615;28;20125;-67
2022/07/29 11:24:34;;;;;;;7.97;2.78;;;;;;;23.58;52.04;101477.09;5257706;28;20021;-67
2022/07/29 11:27:07;;;;;;;4.65;2.60;;;;;;;23.65;53.58;101475.31;5267703;28;20042;-67
2022/07/29 11:29:47;;;;;;;4.22;1.73;;;;;;;23.66;53.23;101473.41;5272462;28;20032;-67
2022/07/29 11:32:21;;;;;;;6.50;2.92;;;;;;;23.61;51.85;101479.44;5266511;28;20116;-67
2022/07/29 11:35:17;;;;;;;5.75;2.45;;;;;;;23.78;51.80;101474.69;5266664;28;20028;-67
2022/07/29 11:38:22;;;;;;;4.50;2.47;;;;;;;23.81;51.02;101468.00;5265365;28;20077;-67
2022/07/29 11:41:24;;;;;;;4.63;1.92;;;;;;;23.82;50.60;101475.16;5258731;28;20024;-67
2022/07/29 11:43:57;;;;;;;5.00;2.00;;;;;;;24.11;49.11;101474.25;5263252;28;20029;-67
2022/07/29 11:46:55;;;;;;;4.60;2.30;;;;;;;24.04;49.93;101481.50;5265581;28;20031;-68
2022/07/29 11:49:27;;;;;;;6.75;2.17;;;;;;;24.35;50.28;101481.22;5263206;28;20115;-64
2022/07/29 11:52:00;;;;;;;6.13;2.50;;;;;;;24.30;50.07;101480.09;5259153;28;20520;-67
2022/07/29 11:54:34;;;;;;;6.00;2.40;;;;;;;24.04;49.99;101474.16;5265409;28;20032;-67
2022/07/29 11:57:06;;;;;;;4.88;2.50;;;;;;;24.16;50.31;101481.84;5269777;28;20032;-67
2022/07/29 11:59:39;;;;;;;5.65;2.00;;;;;;;24.28;49.85;101480.31;5266796;28;20036;-68
2022/07/29 12:02:13;;;;;;;5.80;2.20;;;;;;;24.46;48.88;101480.72;5265456;28;20483;-70